Latest Weather Observations for Cape Nelson

IDV60801

Issued at 8:22 am EST Thursday 1 October 2020 (issued every 10 minutes, with the page automatically refreshed every 10 minutes)

About weather observations | Map of weather stations | Latest weather observations for VIC | Other Formats
Station Details ID: 090184 Name: CAPE NELSON LIGHTHOUSE Lat: -38.43 Lon: 141.54 Height: 45.4 m
Data from the previous 72 hours. | See also: Recent months at Cape Nelson
Date/Time
EST
Temp
°C
App
Temp
°C
Dew
Point
°C
Rel
Hum
%
Delta-T
°C
Wind Press
QNH
hPa
Press
MSL
hPa
Rain since
9am
mm
Dir  Spd
km/h
Gust
km/h
Spd
kts
Gust
kts
01/08:00am 13.0 9.0 6.6 65 3.1 NW 17 30 9 16 1015.2 1015.2 3.6
01/07:30am 11.7 7.0 6.2 69 2.6 W 20 30 11 16 1014.9 1014.9 3.6
01/07:00am 10.9 6.4 6.1 72 2.2 W 19 28 10 15 1014.4 1014.4 3.6
01/06:30am 11.0 7.0 6.7 75 2.0 W 17 24 9 13 1014.1 1014.1 3.6
01/06:00am 10.8 5.7 6.0 72 2.2 WSW 22 30 12 16 1013.6 1013.6 3.6
01/05:30am 10.5 6.2 5.3 70 2.4 WNW 17 26 9 14 1013.3 1013.3 3.6
01/05:00am 10.9 5.4 5.9 71 2.3 W 24 37 13 20 1012.9 1012.9 3.6
01/04:30am 10.9 5.1 6.1 72 2.2 W 26 39 14 21 1012.7 1012.7 3.6
01/04:00am 11.0 4.4 6.2 72 2.2 W 30 41 16 22 1012.8 1012.8 3.6
01/03:30am 11.1 4.2 6.3 72 2.3 W 32 44 17 24 1012.4 1012.4 3.6
01/03:00am 11.3 2.6 6.2 71 2.4 WSW 41 50 22 27 1012.4 1012.4 3.6
01/02:47am 11.2 2.6 4.7 64 2.9 WSW 39 57 21 31 1012.3 1012.3 3.6
01/02:30am 11.4 3.9 6.1 70 2.5 WSW 35 46 19 25 1012.2 1012.2 3.6
01/02:00am 11.4 3.8 5.7 68 2.6 WSW 35 46 19 25 1012.1 1012.1 3.6
01/01:43am 11.2 5.1 6.7 74 2.1 W 28 46 15 25 1012.1 1012.1 3.6
01/01:30am 11.2 3.8 6.7 74 2.1 WSW 35 46 19 25 1012.0 1012.0 3.6
01/01:00am 11.1 4.4 7.2 77 1.9 WSW 32 48 17 26 1011.9 1011.9 3.6
01/12:53am 10.9 5.0 7.6 80 1.6 WSW 28 48 15 26 1011.8 1011.8 3.6
01/12:30am 10.2 5.3 7.1 81 1.5 W 22 37 12 20 1011.8 1011.8 3.6
01/12:00am 10.9 2.2 7.8 81 1.5 WSW 43 65 23 35 1011.6 1011.6 3.4
 
Date/Time
EST
Temp
°C
App
Temp
°C
Dew
Point
°C
Rel
Hum
%
Delta-T
°C
Wind Press
QNH
hPa
Press
MSL
hPa
Rain since
9am
mm
Dir  Spd
km/h
Gust
km/h
Spd
kts
Gust
kts
30/11:52pm 11.9 5.2 7.4 74 2.2 W 32 52 17 28 1011.3 1011.3 3.4
30/11:30pm 11.8 3.3 6.9 72 2.3 WSW 41 54 22 29 1011.2 1011.2 3.4
30/11:00pm 11.8 3.1 7.7 76 2.0 WSW 43 56 23 30 1011.1 1011.1 3.4
30/10:36pm 11.3 5.6 8.2 81 1.5 W 28 46 15 25 1011.1 1011.1 3.4
30/10:30pm 11.7 4.9 7.8 77 1.9 W 33 46 18 25 1011.0 1011.0 3.4
30/10:00pm 11.5 5.5 7.2 75 2.1 W 28 46 15 25 1011.0 1011.0 3.4
30/09:56pm 11.7 4.8 7.2 74 2.2 WSW 33 52 18 28 1010.9 1010.9 3.4
30/09:30pm 11.9 3.6 7.6 75 2.1 WSW 41 54 22 29 1010.7 1010.7 3.4
30/09:05pm 11.6 3.6 7.3 75 2.1 W 39 57 21 31 1010.2 1010.2 3.4
30/09:00pm 11.8 3.1 7.5 75 2.1 W 43 57 23 31 1010.3 1010.3 3.4
30/08:30pm 11.8 4.4 8.5 80 1.6 WSW 37 56 20 30 1009.7 1009.7 3.4
30/08:00pm 11.6 5.2 8.6 82 1.5 W 32 50 17 27 1009.2 1009.2 3.4
30/07:32pm 11.9 6.0 9.1 83 1.4 W 30 48 16 26 1008.8 1008.8 3.4
30/07:30pm 11.9 6.4 9.3 84 1.3 W 28 44 15 24 1008.8 1008.8 3.4
30/07:10pm 12.0 6.2 9.4 84 1.3 W 30 48 16 26 1008.4 1008.4 3.4
30/07:00pm 11.8 5.9 9.2 84 1.3 W 30 43 16 23 1008.3 1008.3 3.4
30/06:48pm 11.9 6.5 9.5 85 1.2 W 28 48 15 26 1008.2 1008.2 3.4
30/06:30pm 12.2 4.0 9.8 85 1.2 WSW 43 57 23 31 1007.9 1007.9 3.4
30/06:11pm 12.0 6.1 10.4 90 0.8 WSW 32 50 17 27 1007.6 1007.6 3.4
30/06:00pm 12.2 7.2 11.1 93 0.6 W 28 43 15 23 1007.5 1007.5 3.4
30/05:46pm 12.3 6.8 11.7 96 0.3 WNW 32 52 17 28 1007.1 1007.1 3.4
30/05:30pm 11.7 6.7 11.1 96 0.3 WNW 28 39 15 21 1006.7 1006.7 3.4
30/05:00pm 11.3 7.0 10.7 96 0.3 WNW 24 35 13 19 1006.5 1006.5 3.4
30/04:30pm 11.1 5.2 10.5 96 0.3 W 32 46 17 25 1006.4 1006.4 3.4
30/04:16pm 11.3 4.8 10.4 94 0.5 W 35 52 19 28 1006.3 1006.3 2.8
30/04:11pm 11.6 4.8 10.8 95 0.4 WNW 37 57 20 31 1006.0 1006.0 2.6
30/04:06pm 11.9 6.2 11.0 94 0.5 WNW 32 57 17 31 1005.9 1005.9 2.6
30/04:00pm 12.2 6.9 11.3 94 0.5 NW 30 43 16 23 1005.7 1005.7 1.8
30/03:41pm 12.3 6.4 11.0 92 0.7 WNW 33 52 18 28 1005.8 1005.8 1.2
30/03:30pm 12.9 7.1 11.5 91 0.7 WNW 33 50 18 27 1005.8 1005.8 0.6
30/03:00pm 13.2 6.2 11.1 87 1.1 WNW 39 61 21 33 1006.0 1006.0 0.6
30/02:32pm 15.3 8.8 10.3 72 2.6 WNW 35 56 19 30 1005.8 1005.8 0.2
30/02:30pm 15.4 9.0 10.6 73 2.5 WNW 35 50 19 27 1005.9 1005.9 0.2
30/02:00pm 15.2 8.3 10.2 72 2.6 WNW 37 50 20 27 1006.0 1006.0 0.2
30/01:30pm 14.5 7.7 10.5 77 2.1 WNW 37 57 20 31 1006.6 1006.6 0.2
30/01:00pm 14.9 8.8 11.7 81 1.7 WNW 35 52 19 28 1006.7 1006.7 0.2
30/12:56pm 14.8 9.1 11.9 83 1.6 WNW 33 52 18 28 1006.8 1006.8 0.2
30/12:30pm 13.9 8.2 11.9 88 1.1 WNW 33 46 18 25 1006.9 1006.9 0.2
30/12:02pm 13.2 7.7 11.9 92 0.7 WNW 32 50 17 27 1006.9 1006.9 0.2
30/12:00pm 13.4 8.4 12.1 92 0.7 WNW 30 46 16 25 1007.0 1007.0 0.2
30/11:36am 13.0 7.3 11.7 92 0.7 WNW 33 54 18 29 1007.2 1007.2 0.2
30/11:30am 13.3 7.8 12.0 92 0.7 WNW 32 44 17 24 1007.2 1007.2 0.2
30/11:00am 13.5 7.8 11.0 85 1.3 WNW 32 44 17 24 1007.4 1007.4 0.0
30/10:30am 15.9 11.8 11.5 75 2.4 NW 24 33 13 18 1007.6 1007.6 0.0
30/10:00am 15.6 11.0 11.2 75 2.4 NW 26 37 14 20 1008.1 1008.1 0.0
30/09:30am 16.5 12.0 11.4 72 2.8 NW 26 39 14 21 1008.4 1008.4 0.0
30/09:00am 17.5 12.7 11.5 68 3.3 NNW 28 44 15 24 1008.3 1008.3 0.0
30/08:30am 14.0 9.3 10.8 81 1.7 NW 26 37 14 20 1008.7 1008.7 0.0
30/08:00am 13.8 10.3 10.8 82 1.6 NNW 20 32 11 17 1008.9 1008.9 0.0
30/07:30am 13.6 10.1 11.0 84 1.4 NNW 20 28 11 15 1008.8 1008.8 0.0
30/07:00am 12.9 9.6 10.8 87 1.1 NNW 19 26 10 14 1009.1 1009.1 0.0
30/06:30am 12.3 9.3 10.5 89 0.9 NNW 17 26 9 14 1009.0 1009.0 0.0
30/06:00am 11.9 8.4 10.1 89 0.9 NNW 19 26 10 14 1008.9 1008.9 0.0
30/05:30am 12.0 8.8 10.1 88 1.0 N 17 26 9 14 1008.8 1008.8 0.0
30/05:00am 12.5 8.9 10.0 85 1.3 NNW 19 26 10 14 1009.0 1009.0 0.0
30/04:30am 13.1 9.6 10.3 83 1.5 NNW 19 30 10 16 1009.1 1009.1 0.0
30/04:00am 13.2 10.1 10.4 83 1.5 NNW 17 24 9 13 1009.2 1009.2 0.0
30/03:30am 13.3 10.2 10.3 82 1.6 NNW 17 24 9 13 1009.6 1009.6 0.0
30/03:00am 13.4 10.3 10.4 82 1.6 NW 17 24 9 13 1009.9 1009.9 0.0
30/02:30am 13.5 10.7 10.1 80 1.8 NNW 15 20 8 11 1010.5 1010.5 0.0
30/02:00am 13.9 10.4 10.1 78 2.0 NW 19 24 10 13 1011.2 1011.2 0.0
30/01:30am 13.8 10.9 9.6 76 2.2 NW 15 20 8 11 1011.5 1011.5 0.0
30/01:00am 13.9 10.2 9.5 75 2.3 NW 19 26 10 14 1011.7 1011.7 0.0
30/12:30am 13.9 10.2 9.3 74 2.3 NW 19 26 10 14 1011.9 1011.9 0.0
30/12:00am 14.0 10.2 9.0 72 2.5 NW 19 26 10 14 1012.3 1012.3 0.0
 
Date/Time
EST
Temp
°C
App
Temp
°C
Dew
Point
°C
Rel
Hum
%
Delta-T
°C
Wind Press
QNH
hPa
Press
MSL
hPa
Rain since
9am
mm
Dir  Spd
km/h
Gust
km/h
Spd
kts
Gust
kts
29/11:30pm 14.2 10.8 9.0 71 2.6 NNW 17 28 9 15 1012.5 1012.5 0.0
29/11:00pm 14.0 11.2 8.6 70 2.7 NNW 13 15 7 8 1012.5 1012.5 0.0
29/10:30pm 14.1 11.4 8.9 71 2.6 NNW 13 17 7 9 1012.6 1012.6 0.0
29/10:00pm 14.3 12.0 9.1 71 2.7 NW 11 15 6 8 1012.8 1012.8 0.0
29/09:30pm 14.6 12.2 8.5 67 3.1 NW 11 13 6 7 1013.2 1013.2 0.0
29/09:00pm 15.4 12.2 8.4 63 3.5 NW 15 20 8 11 1013.6 1013.6 0.0
29/08:30pm 15.9 11.6 7.9 59 4.0 N 20 28 11 15 1013.4 1013.4 0.0
29/08:00pm 15.7 11.4 8.0 60 3.9 N 20 26 11 14 1013.2 1013.2 0.0
29/07:30pm 15.8 11.8 8.1 60 3.9 NNE 19 26 10 14 1013.1 1013.1 0.0
29/07:00pm 16.1 12.0 7.8 58 4.2 NNE 19 26 10 14 1013.0 1013.0 0.0
29/06:30pm 16.2 12.1 7.7 57 4.3 NNE 19 30 10 16 1013.1 1013.1 0.0
29/06:00pm 16.5 12.2 7.7 56 4.4 NNE 20 32 11 17 1013.0 1013.0 0.0
29/05:30pm 16.8 12.4 7.4 54 4.7 NNE 20 30 11 16 1013.1 1013.1 0.0
29/05:00pm 17.2 12.8 7.3 52 5.0 N 20 32 11 17 1013.3 1013.3 0.0
29/04:30pm 17.9 13.5 7.3 50 5.3 N 20 32 11 17 1013.3 1013.3 0.0
29/04:00pm 18.4 14.2 8.1 51 5.3 NNE 20 32 11 17 1013.6 1013.6 0.0
29/03:30pm 18.6 13.8 7.4 48 5.7 NNE 22 35 12 19 1013.9 1013.9 0.0
29/03:00pm 18.9 14.7 8.3 50 5.5 N 20 32 11 17 1014.4 1014.4 0.0
29/02:30pm 19.2 13.7 7.6 47 5.9 N 26 39 14 21 1014.9 1014.9 0.0
29/02:00pm 19.5 14.2 6.9 44 6.4 N 24 43 13 23 1015.2 1015.2 0.0
29/01:30pm 19.6 14.7 7.0 44 6.4 N 22 41 12 22 1015.9 1015.9 0.0
29/01:00pm 19.5 12.6 6.6 43 6.5 N 32 46 17 25 1016.6 1016.6 0.0
29/12:30pm 19.4 13.3 6.5 43 6.5 N 28 43 15 23 1017.1 1017.1 0.0
29/12:00pm 19.6 14.3 7.0 44 6.4 NNE 24 35 13 19 1017.4 1017.4 0.0
29/11:30am 19.2 13.5 8.2 49 5.7 N 28 43 15 23 1018.1 1018.1 0.0
29/11:00am 17.8 12.1 6.7 48 5.5 N 26 39 14 21 1018.4 1018.4 0.0
29/10:30am 17.0 10.6 6.8 51 5.1 N 30 43 16 23 1018.7 1018.7 0.0
29/10:00am 16.3 10.2 6.4 52 4.8 NNE 28 44 15 24 1019.3 1019.3 0.0
29/09:30am 13.7 8.5 7.2 65 3.2 NNE 24 32 13 17 1019.9 1019.9 0.0
29/09:00am 13.3 7.8 7.7 69 2.7 NNE 26 35 14 19 1020.1 1020.1 0.0
29/08:30am 10.7 5.6 7.6 81 1.5 NE 24 33 13 18 1020.4 1020.4 0.0
29/08:00am 9.7 4.6 7.5 86 1.0 NE 24 32 13 17 1020.6 1020.6 0.0
29/07:30am 9.0 3.8 7.1 88 0.9 NE 24 32 13 17 1020.8 1020.8 0.0
29/07:00am 8.6 3.4 7.1 90 0.7 NE 24 30 13 16 1020.9 1020.9 0.0
29/06:30am 8.0 2.7 6.8 92 0.6 NE 24 32 13 17 1020.9 1020.9 0.0
29/06:00am 7.6 2.2 6.4 92 0.5 NE 24 33 13 18 1021.0 1021.0 0.0
29/05:30am 7.6 2.2 6.2 91 0.6 NE 24 30 13 16 1020.8 1020.8 0.0
29/05:00am 7.4 1.9 5.9 90 0.7 NE 24 32 13 17 1021.1 1021.1 0.0
29/04:30am 7.7 2.6 6.2 90 0.7 NE 22 28 12 15 1021.2 1021.2 0.0
29/04:00am 7.9 2.5 6.2 89 0.8 NE 24 32 13 17 1021.0 1021.0 0.0
29/03:30am 8.2 2.8 6.5 89 0.8 NE 24 32 13 17 1021.2 1021.2 0.0
29/03:00am 8.3 1.8 6.6 89 0.8 ENE 30 37 16 20 1021.5 1021.5 0.0
29/02:30am 8.2 1.7 6.3 88 0.9 ENE 30 39 16 21 1022.0 1022.0 0.0
29/02:00am 8.4 2.3 6.4 87 0.9 NE 28 37 15 20 1022.6 1022.6 0.0
29/01:30am 8.6 3.2 6.2 85 1.1 NE 24 33 13 18 1023.0 1023.1 0.0
29/01:00am 9.0 2.5 6.3 83 1.2 ENE 30 39 16 21 1023.4 1023.5 0.0
29/12:30am 9.4 3.3 6.8 84 1.2 ENE 28 37 15 20 1024.1 1024.2 0.0
29/12:00am 10.0 5.3 7.9 87 1.0 ENE 22 32 12 17 1024.6 1024.7 0.0
 
Date/Time
EST
Temp
°C
App
Temp
°C
Dew
Point
°C
Rel
Hum
%
Delta-T
°C
Wind Press
QNH
hPa
Press
MSL
hPa
Rain since
9am
mm
Dir  Spd
km/h
Gust
km/h
Spd
kts
Gust
kts
28/11:30pm 10.6 5.2 8.2 85 1.2 E 26 35 14 19 1024.8 1024.9 0.0
28/11:00pm 10.2 5.1 7.8 85 1.1 E 24 33 13 18 1025.3 1025.4 0.0
28/10:30pm 10.0 4.8 7.4 84 1.2 E 24 32 13 17 1025.6 1025.7 0.0
28/10:00pm 10.1 4.9 7.3 83 1.3 E 24 35 13 19 1025.8 1025.9 0.0
28/09:30pm 10.1 4.5 7.3 83 1.3 E 26 39 14 21 1025.7 1025.8 0.0
28/09:00pm 10.2 3.9 7.3 82 1.4 E 30 43 16 23 1025.4 1025.5 0.0
28/08:30pm 10.1 3.7 7.0 81 1.5 E 30 46 16 25 1025.5 1025.6 0.0
28/08:00pm 10.1 3.3 6.8 80 1.5 E 32 44 17 24 1025.2 1025.3 0.0
28/07:30pm 10.1 3.2 6.6 79 1.6 E 32 44 17 24 1025.0 1025.1 0.0
28/07:00pm 10.2 3.7 6.5 78 1.7 E 30 39 16 21 1025.0 1025.1 0.0
28/06:30pm 10.3 3.4 6.3 76 1.9 E 32 41 17 22 1025.1 1025.2 0.0
28/06:00pm 10.7 4.5 6.3 74 2.0 E 28 35 15 19 1025.3 1025.4 0.0
28/05:30pm 11.7 6.3 6.4 70 2.5 E 24 30 13 16 1025.7 1025.8 0.0
28/05:00pm 12.1 6.0 6.4 68 2.7 E 28 33 15 18 1025.4 1025.5 0.0
28/04:30pm 12.7 7.3 6.3 65 3.0 E 24 32 13 17 1025.4 1025.5 0.0
28/04:00pm 13.2 7.3 5.9 61 3.4 E 26 32 14 17 1025.5 1025.6 0.0
28/03:30pm 14.1 8.7 6.2 59 3.8 E 24 30 13 16 1025.8 1025.9 0.0
28/03:00pm 14.4 9.6 5.5 55 4.2 E 20 28 11 15 1026.2 1026.3 0.0
28/02:30pm 15.7 10.6 5.9 52 4.7 E 22 26 12 14 1026.8 1026.8 0.0
28/02:00pm 16.0 11.2 5.6 50 5.0 E 20 24 11 13 1027.2 1027.2 0.0
28/01:30pm 16.4 11.7 6.2 51 5.0 E 20 24 11 13 1027.6 1027.6 0.0
28/01:00pm 16.0 11.4 5.6 50 5.0 E 19 24 10 13 1027.8 1027.8 0.0
28/12:30pm 16.1 11.7 6.5 53 4.7 E 19 24 10 13 1028.1 1028.1 0.0
28/12:00pm 16.2 11.6 5.5 49 5.1 E 19 24 10 13 1028.3 1028.3 0.0
28/11:30am 15.3 10.6 5.2 51 4.8 ENE 19 24 10 13 1028.6 1028.6 0.0
28/11:00am 15.3 10.4 5.0 50 4.8 ENE 20 28 11 15 1028.9 1028.9 0.0
28/10:30am 15.0 10.2 5.5 53 4.5 ENE 20 26 11 14 1029.3 1029.3 0.0
28/10:00am 14.8 10.4 4.5 50 4.8 ENE 17 22 9 12 1029.6 1029.6 0.0
28/09:30am 14.8 10.7 4.5 50 4.8 NE 15 22 8 12 1029.8 1029.8 0.0
28/09:00am 14.6 10.5 4.6 51 4.6 NNE 15 20 8 11 1029.7 1029.7 0.0
28/08:30am 12.9 8.3 3.6 53 4.2 NNE 17 22 9 12 1029.6 1029.6 0.0

Other formats

Comma delimited format used in spreadsheet applications
http://www.bom.gov.au/fwo/IDV60801/IDV60801.94826.axf

JavaScript Object Notation format (JSON) in row-major order
http://www.bom.gov.au/fwo/IDV60801/IDV60801.94826.json

Data quality

Most of these data are generated automatically and are frequently updated. Quality checks on data are not normally performed. It is possible for incorrect values to appear. Refer to information at About Latest Weather Observations and please check the disclaimer before using these data.